sensor_id;sensor_type;location;lat;lon;timestamp;pressure;altitude;pressure_sealevel;temperature;humidity
63035;BME280;59750;53.356;-1.458;2022-10-15T00:00:48;99305.06;;;8.07;100.00
63035;BME280;59750;53.356;-1.458;2022-10-15T00:03:14;99301.63;;;8.06;100.00
63035;BME280;59750;53.356;-1.458;2022-10-15T00:05:40;99307.09;;;8.03;100.00
63035;BME280;59750;53.356;-1.458;2022-10-15T00:08:07;99303.28;;;8.07;100.00
63035;BME280;59750;53.356;-1.458;2022-10-15T00:10:34;99285.78;;;8.08;100.00
63035;BME280;59750;53.356;-1.458;2022-10-15T00:13:01;99282.19;;;8.09;100.00
63035;BME280;59750;53.356;-1.458;2022-10-15T00:15:27;99292.53;;;8.11;100.00
63035;BME280;59750;53.356;-1.458;2022-10-15T00:17:54;99281.13;;;8.12;100.00
63035;BME280;59750;53.356;-1.458;2022-10-15T00:20:20;99285.41;;;8.13;100.00
63035;BME280;59750;53.356;-1.458;2022-10-15T00:22:46;99273.13;;;8.13;100.00
63035;BME280;59750;53.356;-1.458;2022-10-15T00:25:13;99269.69;;;8.13;100.00
63035;BME280;59750;53.356;-1.458;2022-10-15T00:27:39;99273.97;;;8.14;100.00
63035;BME280;59750;53.356;-1.458;2022-10-15T00:30:05;99260.03;;;8.13;100.00
63035;BME280;59750;53.356;-1.458;2022-10-15T00:32:31;99259.06;;;8.14;100.00
63035;BME280;59750;53.356;-1.458;2022-10-15T00:34:57;99252.06;;;8.15;100.00
63035;BME280;59750;53.356;-1.458;2022-10-15T00:37:23;99238.00;;;8.16;100.00
63035;BME280;59750;53.356;-1.458;2022-10-15T00:39:49;99236.34;;;8.15;100.00
63035;BME280;59750;53.356;-1.458;2022-10-15T00:42:15;99229.44;;;8.14;100.00
63035;BME280;59750;53.356;-1.458;2022-10-15T00:44:48;99231.34;;;8.12;100.00
63035;BME280;59750;53.356;-1.458;2022-10-15T00:47:17;99222.09;;;8.07;100.00
63035;BME280;59750;53.356;-1.458;2022-10-15T00:49:50;99215.88;;;8.09;100.00
63035;BME280;59750;53.356;-1.458;2022-10-15T00:52:26;99209.00;;;8.07;100.00
63035;BME280;59750;53.356;-1.458;2022-10-15T00:55:00;99215.06;;;8.08;100.00
63035;BME280;59750;53.356;-1.458;2022-10-15T00:57:30;99216.59;;;8.11;100.00
63035;BME280;59750;53.356;-1.458;2022-10-15T01:00:03;99224.44;;;8.11;100.00
63035;BME280;59750;53.356;-1.458;2022-10-15T01:02:30;99235.63;;;8.13;100.00
63035;BME280;59750;53.356;-1.458;2022-10-15T01:04:56;99231.09;;;8.15;100.00
63035;BME280;59750;53.356;-1.458;2022-10-15T01:07:22;99231.09;;;8.15;100.00
63035;BME280;59750;53.356;-1.458;2022-10-15T01:09:48;99229.19;;;8.17;100.00
63035;BME280;59750;53.356;-1.458;2022-10-15T01:15:25;99211.53;;;8.19;100.00
63035;BME280;59750;53.356;-1.458;2022-10-15T01:18:14;99219.28;;;8.20;100.00
63035;BME280;59750;53.356;-1.458;2022-10-15T01:32:14;99185.13;;;8.22;100.00
63035;BME280;59750;53.356;-1.458;2022-10-15T01:43:37;99159.03;;;8.20;100.00
63035;BME280;59750;53.356;-1.458;2022-10-15T01:46:13;99149.50;;;8.19;100.00
63035;BME280;59750;53.356;-1.458;2022-10-15T01:48:41;99146.88;;;8.19;100.00
63035;BME280;59750;53.356;-1.458;2022-10-15T01:51:09;99129.38;;;8.20;100.00
63035;BME280;59750;53.356;-1.458;2022-10-15T01:53:36;99130.22;;;8.20;100.00
63035;BME280;59750;53.356;-1.458;2022-10-15T01:56:07;99115.31;;;8.21;100.00
63035;BME280;59750;53.356;-1.458;2022-10-15T01:58:38;99115.09;;;8.24;100.00
63035;BME280;59750;53.356;-1.458;2022-10-15T02:01:05;99104.63;;;8.24;100.00
63035;BME280;59750;53.356;-1.458;2022-10-15T02:03:30;99094.00;;;8.25;100.00
63035;BME280;59750;53.356;-1.458;2022-10-15T02:06:03;99087.25;;;8.23;100.00
63035;BME280;59750;53.356;-1.458;2022-10-15T02:08:36;99083.53;;;8.25;100.00
63035;BME280;59750;53.356;-1.458;2022-10-15T02:11:08;99072.91;;;8.27;100.00
63035;BME280;59750;53.356;-1.458;2022-10-15T02:18:57;99042.88;;;8.31;100.00
63035;BME280;59750;53.356;-1.458;2022-10-15T02:21:36;99033.94;;;8.33;100.00
63035;BME280;59750;53.356;-1.458;2022-10-15T02:24:14;99021.41;;;8.37;100.00
63035;BME280;59750;53.356;-1.458;2022-10-15T02:26:43;99007.34;;;8.38;100.00
63035;BME280;59750;53.356;-1.458;2022-10-15T02:29:12;99013.97;;;8.42;100.00
63035;BME280;59750;53.356;-1.458;2022-10-15T02:31:42;99012.06;;;8.44;100.00
63035;BME280;59750;53.356;-1.458;2022-10-15T02:34:12;99002.28;;;8.46;100.00
63035;BME280;59750;53.356;-1.458;2022-10-15T02:36:41;99008.66;;;8.53;100.00
63035;BME280;59750;53.356;-1.458;2022-10-15T02:39:11;99002.88;;;8.59;100.00
63035;BME280;59750;53.356;-1.458;2022-10-15T02:41:38;99004.13;;;8.65;100.00
63035;BME280;59750;53.356;-1.458;2022-10-15T02:44:05;99004.69;;;8.68;100.00
63035;BME280;59750;53.356;-1.458;2022-10-15T02:46:31;99001.25;;;8.68;100.00
63035;BME280;59750;53.356;-1.458;2022-10-15T02:48:56;99002.06;;;8.68;100.00
63035;BME280;59750;53.356;-1.458;2022-10-15T02:51:22;98990.34;;;8.73;100.00
63035;BME280;59750;53.356;-1.458;2022-10-15T02:53:48;98983.44;;;8.72;100.00
63035;BME280;59750;53.356;-1.458;2022-10-15T02:56:14;98970.06;;;8.75;100.00
63035;BME280;59750;53.356;-1.458;2022-10-15T02:58:41;98977.09;;;8.74;100.00
63035;BME280;59750;53.356;-1.458;2022-10-15T03:01:07;98985.94;;;8.73;100.00
63035;BME280;59750;53.356;-1.458;2022-10-15T03:03:33;98992.44;;;8.79;100.00
63035;BME280;59750;53.356;-1.458;2022-10-15T03:05:59;98989.81;;;8.79;100.00
63035;BME280;59750;53.356;-1.458;2022-10-15T03:08:25;98978.78;;;8.85;100.00
63035;BME280;59750;53.356;-1.458;2022-10-15T03:10:51;98967.63;;;8.83;100.00
63035;BME280;59750;53.356;-1.458;2022-10-15T03:13:17;98959.19;;;8.89;100.00
63035;BME280;59750;53.356;-1.458;2022-10-15T03:15:42;98960.03;;;8.89;100.00
63035;BME280;59750;53.356;-1.458;2022-10-15T03:18:08;98948.72;;;8.89;100.00
63035;BME280;59750;53.356;-1.458;2022-10-15T03:20:34;98950.09;;;8.93;100.00
63035;BME280;59750;53.356;-1.458;2022-10-15T03:23:01;98939.59;;;8.93;100.00
63035;BME280;59750;53.356;-1.458;2022-10-15T03:25:27;98929.50;;;8.98;100.00
63035;BME280;59750;53.356;-1.458;2022-10-15T03:27:52;98924.13;;;8.99;100.00
63035;BME280;59750;53.356;-1.458;2022-10-15T03:30:19;98911.16;;;8.98;100.00
63035;BME280;59750;53.356;-1.458;2022-10-15T03:32:45;98917.38;;;8.97;100.00
63035;BME280;59750;53.356;-1.458;2022-10-15T03:35:12;98899.00;;;8.97;100.00
63035;BME280;59750;53.356;-1.458;2022-10-15T03:37:38;98905.91;;;8.98;100.00
63035;BME280;59750;53.356;-1.458;2022-10-15T03:40:04;98899.00;;;8.97;100.00
63035;BME280;59750;53.356;-1.458;2022-10-15T03:42:30;98898.72;;;9.00;100.00
63035;BME280;59750;53.356;-1.458;2022-10-15T03:44:56;98881.06;;;9.02;100.00
63035;BME280;59750;53.356;-1.458;2022-10-15T03:47:21;98870.56;;;9.02;100.00
63035;BME280;59750;53.356;-1.458;2022-10-15T03:49:47;98861.88;;;9.02;100.00
63035;BME280;59750;53.356;-1.458;2022-10-15T03:52:13;98861.72;;;9.03;100.00
63035;BME280;59750;53.356;-1.458;2022-10-15T03:54:39;98858.28;;;9.03;100.00
63035;BME280;59750;53.356;-1.458;2022-10-15T03:57:04;98863.66;;;9.01;100.00
63035;BME280;59750;53.356;-1.458;2022-10-15T03:59:30;98846.97;;;9.02;100.00
63035;BME280;59750;53.356;-1.458;2022-10-15T04:01:58;98846.81;;;9.04;100.00
63035;BME280;59750;53.356;-1.458;2022-10-15T04:04:24;98835.50;;;9.03;100.00
63035;BME280;59750;53.356;-1.458;2022-10-15T04:06:50;98836.47;;;9.02;100.00
63035;BME280;59750;53.356;-1.458;2022-10-15T04:09:16;98847.09;;;9.01;100.00
63035;BME280;59750;53.356;-1.458;2022-10-15T04:11:41;98834.66;;;9.03;100.00
63035;BME280;59750;53.356;-1.458;2022-10-15T04:14:07;98831.94;;;9.04;100.00
63035;BME280;59750;53.356;-1.458;2022-10-15T04:16:33;98829.72;;;9.09;100.00
63035;BME280;59750;53.356;-1.458;2022-10-15T04:18:58;98821.84;;;9.09;100.00
63035;BME280;59750;53.356;-1.458;2022-10-15T04:21:24;98814.94;;;9.08;100.00
63035;BME280;59750;53.356;-1.458;2022-10-15T04:23:51;98812.03;;;9.11;100.00
63035;BME280;59750;53.356;-1.458;2022-10-15T04:26:17;98802.09;;;9.15;100.00
63035;BME280;59750;53.356;-1.458;2022-10-15T04:28:43;98796.31;;;9.11;100.00
63035;BME280;59750;53.356;-1.458;2022-10-15T04:31:09;98792.72;;;9.12;100.00
63035;BME280;59750;53.356;-1.458;2022-10-15T04:33:35;98788.44;;;9.11;100.00
63035;BME280;59750;53.356;-1.458;2022-10-15T04:36:07;98776.16;;;9.12;100.00
63035;BME280;59750;53.356;-1.458;2022-10-15T04:38:33;98787.16;;;9.15;100.00
63035;BME280;59750;53.356;-1.458;2022-10-15T04:41:03;98783.59;;;9.16;100.00
63035;BME280;59750;53.356;-1.458;2022-10-15T04:43:29;98780.97;;;9.16;100.00
63035;BME280;59750;53.356;-1.458;2022-10-15T04:46:00;98780.66;;;9.19;100.00
63035;BME280;59750;53.356;-1.458;2022-10-15T04:48:27;98762.31;;;9.19;100.00
63035;BME280;59750;53.356;-1.458;2022-10-15T04:50:55;98767.25;;;9.22;100.00
63035;BME280;59750;53.356;-1.458;2022-10-15T04:53:21;98755.66;;;9.25;100.00
63035;BME280;59750;53.356;-1.458;2022-10-15T04:55:47;98747.63;;;9.26;100.00
63035;BME280;59750;53.356;-1.458;2022-10-15T04:58:13;98759.38;;;9.22;100.00
63035;BME280;59750;53.356;-1.458;2022-10-15T05:00:40;98749.28;;;9.27;100.00
63035;BME280;59750;53.356;-1.458;2022-10-15T05:03:06;98757.31;;;9.26;100.00
63035;BME280;59750;53.356;-1.458;2022-10-15T05:05:32;98754.97;;;9.23;100.00
63035;BME280;59750;53.356;-1.458;2022-10-15T05:07:59;98746.56;;;9.19;100.00
63035;BME280;59750;53.356;-1.458;2022-10-15T05:10:26;98749.47;;;9.16;100.00
63035;BME280;59750;53.356;-1.458;2022-10-15T05:12:52;98749.03;;;9.21;100.00
63035;BME280;59750;53.356;-1.458;2022-10-15T05:15:17;98749.72;;;9.23;100.00
63035;BME280;59750;53.356;-1.458;2022-10-15T05:17:43;98748.06;;;9.22;100.00
63035;BME280;59750;53.356;-1.458;2022-10-15T05:20:09;98739.09;;;9.24;100.00
63035;BME280;59750;53.356;-1.458;2022-10-15T05:22:35;98737.13;;;9.26;100.00
63035;BME280;59750;53.356;-1.458;2022-10-15T05:25:01;98741.00;;;9.32;100.00
63035;BME280;59750;53.356;-1.458;2022-10-15T05:27:27;98741.94;;;9.31;100.00
63035;BME280;59750;53.356;-1.458;2022-10-15T05:29:53;98738.50;;;9.30;100.00
63035;BME280;59750;53.356;-1.458;2022-10-15T05:32:19;98731.34;;;9.33;100.00
63035;BME280;59750;53.356;-1.458;2022-10-15T05:34:45;98732.00;;;9.35;100.00
63035;BME280;59750;53.356;-1.458;2022-10-15T05:37:10;98733.00;;;9.34;100.00
63035;BME280;59750;53.356;-1.458;2022-10-15T05:39:36;98724.16;;;9.35;100.00
63035;BME280;59750;53.356;-1.458;2022-10-15T05:42:02;98714.47;;;9.35;100.00
63035;BME280;59750;53.356;-1.458;2022-10-15T05:44:29;98728.41;;;9.36;100.00
63035;BME280;59750;53.356;-1.458;2022-10-15T05:47:00;98725.25;;;9.32;100.00
63035;BME280;59750;53.356;-1.458;2022-10-15T05:49:26;98719.44;;;9.28;100.00
63035;BME280;59750;53.356;-1.458;2022-10-15T05:51:51;98719.75;;;9.25;100.00
63035;BME280;59750;53.356;-1.458;2022-10-15T05:54:17;98716.28;;;9.25;100.00
63035;BME280;59750;53.356;-1.458;2022-10-15T05:56:43;98718.38;;;9.21;100.00
63035;BME280;59750;53.356;-1.458;2022-10-15T05:59:09;98727.81;;;9.14;100.00
63035;BME280;59750;53.356;-1.458;2022-10-15T06:01:35;98729.75;;;9.12;100.00
63035;BME280;59750;53.356;-1.458;2022-10-15T06:04:02;98728.09;;;9.11;100.00
63035;BME280;59750;53.356;-1.458;2022-10-15T06:06:28;98730.88;;;9.10;100.00
63035;BME280;59750;53.356;-1.458;2022-10-15T06:08:54;98731.69;;;9.10;100.00
63035;BME280;59750;53.356;-1.458;2022-10-15T06:11:20;98721.19;;;9.10;100.00
63035;BME280;59750;53.356;-1.458;2022-10-15T06:13:46;98716.25;;;9.07;100.00
63035;BME280;59750;53.356;-1.458;2022-10-15T06:16:14;98722.59;;;9.05;100.00
63035;BME280;59750;53.356;-1.458;2022-10-15T06:18:41;98728.94;;;9.02;100.00
63035;BME280;59750;53.356;-1.458;2022-10-15T06:21:07;98724.94;;;8.98;100.00
63035;BME280;59750;53.356;-1.458;2022-10-15T06:23:34;98726.22;;;8.94;100.00
63035;BME280;59750;53.356;-1.458;2022-10-15T06:26:02;98724.84;;;8.90;100.00
63035;BME280;59750;53.356;-1.458;2022-10-15T06:28:29;98735.63;;;8.87;100.00
63035;BME280;59750;53.356;-1.458;2022-10-15T06:30:57;98725.28;;;8.85;100.00
63035;BME280;59750;53.356;-1.458;2022-10-15T06:33:24;98715.22;;;8.81;100.00
63035;BME280;59750;53.356;-1.458;2022-10-15T06:35:50;98714.41;;;8.80;100.00
63035;BME280;59750;53.356;-1.458;2022-10-15T06:38:16;98705.03;;;8.78;100.00
63035;BME280;59750;53.356;-1.458;2022-10-15T06:40:42;98707.91;;;8.75;100.00
63035;BME280;59750;53.356;-1.458;2022-10-15T06:43:09;98716.59;;;8.75;100.00
63035;BME280;59750;53.356;-1.458;2022-10-15T06:45:38;98708.88;;;8.74;100.00
63035;BME280;59750;53.356;-1.458;2022-10-15T06:48:05;98707.22;;;8.73;100.00
63035;BME280;59750;53.356;-1.458;2022-10-15T06:50:33;98704.59;;;8.73;100.00
63035;BME280;59750;53.356;-1.458;2022-10-15T06:53:00;98715.91;;;8.73;100.00
63035;BME280;59750;53.356;-1.458;2022-10-15T06:55:27;98711.63;;;8.72;100.00
63035;BME280;59750;53.356;-1.458;2022-10-15T06:57:55;98720.19;;;8.74;100.00
63035;BME280;59750;53.356;-1.458;2022-10-15T07:00:23;98725.28;;;8.76;100.00
63035;BME280;59750;53.356;-1.458;2022-10-15T07:02:50;98729.00;;;8.83;100.00
63035;BME280;59750;53.356;-1.458;2022-10-15T07:05:17;98716.00;;;8.91;100.00
63035;BME280;59750;53.356;-1.458;2022-10-15T07:08:03;98729.22;;;8.99;100.00
63035;BME280;59750;53.356;-1.458;2022-10-15T07:10:30;98745.25;;;9.06;100.00
63035;BME280;59750;53.356;-1.458;2022-10-15T07:13:00;98731.69;;;9.10;100.00
63035;BME280;59750;53.356;-1.458;2022-10-15T07:15:27;98742.03;;;9.12;100.00
63035;BME280;59750;53.356;-1.458;2022-10-15T07:17:55;98741.91;;;9.13;100.00
63035;BME280;59750;53.356;-1.458;2022-10-15T07:20:22;98743.25;;;9.17;100.00
63035;BME280;59750;53.356;-1.458;2022-10-15T07:22:48;98737.72;;;9.20;100.00
63035;BME280;59750;53.356;-1.458;2022-10-15T07:25:14;98741.03;;;9.22;100.00
63035;BME280;59750;53.356;-1.458;2022-10-15T07:27:40;98741.03;;;9.22;100.00
63035;BME280;59750;53.356;-1.458;2022-10-15T07:30:07;98670.88;;;9.24;100.00
63035;BME280;59750;53.356;-1.458;2022-10-15T07:32:34;98682.47;;;9.22;100.00
63035;BME280;59750;53.356;-1.458;2022-10-15T07:35:00;98708.72;;;9.22;100.00
63035;BME280;59750;53.356;-1.458;2022-10-15T07:37:27;98707.06;;;9.21;100.00
63035;BME280;59750;53.356;-1.458;2022-10-15T07:39:53;98722.66;;;9.22;100.00
63035;BME280;59750;53.356;-1.458;2022-10-15T07:42:19;98737.56;;;9.22;100.00
63035;BME280;59750;53.356;-1.458;2022-10-15T07:44:46;98731.66;;;9.20;100.00
63035;BME280;59750;53.356;-1.458;2022-10-15T07:47:12;98730.81;;;9.19;100.00
63035;BME280;59750;53.356;-1.458;2022-10-15T07:49:38;98725.56;;;9.19;100.00
63035;BME280;59750;53.356;-1.458;2022-10-15T07:52:04;98727.22;;;9.20;100.00
63035;BME280;59750;53.356;-1.458;2022-10-15T07:54:34;98732.03;;;9.25;100.00
63035;BME280;59750;53.356;-1.458;2022-10-15T07:57:01;98732.72;;;9.27;100.00
63035;BME280;59750;53.356;-1.458;2022-10-15T07:59:27;98734.94;;;9.32;100.00
63035;BME280;59750;53.356;-1.458;2022-10-15T08:01:53;98733.38;;;9.39;100.00
63035;BME280;59750;53.356;-1.458;2022-10-15T08:04:19;98740.13;;;9.41;100.00
63035;BME280;59750;53.356;-1.458;2022-10-15T08:06:46;98745.91;;;9.45;100.00
63035;BME280;59750;53.356;-1.458;2022-10-15T08:09:15;98747.84;;;9.43;100.00
63035;BME280;59750;53.356;-1.458;2022-10-15T08:11:42;98742.59;;;9.43;100.00
63035;BME280;59750;53.356;-1.458;2022-10-15T08:14:08;98744.56;;;9.41;100.00
63035;BME280;59750;53.356;-1.458;2022-10-15T08:16:34;98745.53;;;9.40;100.00
63035;BME280;59750;53.356;-1.458;2022-10-15T08:19:00;98751.75;;;9.39;100.00
63035;BME280;59750;53.356;-1.458;2022-10-15T08:21:26;98754.81;;;9.34;100.00
63035;BME280;59750;53.356;-1.458;2022-10-15T08:23:52;98744.69;;;9.39;100.00
63035;BME280;59750;53.356;-1.458;2022-10-15T08:26:18;98750.19;;;9.46;100.00
63035;BME280;59750;53.356;-1.458;2022-10-15T08:28:44;98756.25;;;9.74;100.00
63035;BME280;59750;53.356;-1.458;2022-10-15T08:31:10;98745.91;;;10.35;100.00
63035;BME280;59750;53.356;-1.458;2022-10-15T08:33:37;98735.72;;;11.28;100.00
63035;BME280;59750;53.356;-1.458;2022-10-15T08:36:04;98751.84;;;12.17;100.00
63035;BME280;59750;53.356;-1.458;2022-10-15T08:38:32;98752.19;;;12.71;100.00
63035;BME280;59750;53.356;-1.458;2022-10-15T08:40:59;98752.44;;;13.33;100.00
63035;BME280;59750;53.356;-1.458;2022-10-15T08:43:35;98755.25;;;13.79;94.60
63035;BME280;59750;53.356;-1.458;2022-10-15T08:46:10;98749.22;;;13.62;93.53
63035;BME280;59750;53.356;-1.458;2022-10-15T08:48:41;98755.75;;;13.43;94.19
63035;BME280;59750;53.356;-1.458;2022-10-15T08:53:42;98763.72;;;12.21;100.00
63035;BME280;59750;53.356;-1.458;2022-10-15T08:56:16;98765.81;;;11.67;100.00
63035;BME280;59750;53.356;-1.458;2022-10-15T08:58:52;98768.44;;;11.59;100.00
63035;BME280;59750;53.356;-1.458;2022-10-15T09:01:54;98764.97;;;12.01;100.00
63035;BME280;59750;53.356;-1.458;2022-10-15T09:04:28;98765.50;;;12.21;100.00
63035;BME280;59750;53.356;-1.458;2022-10-15T09:07:08;98764.03;;;13.24;100.00
63035;BME280;59750;53.356;-1.458;2022-10-15T09:12:35;98772.78;;;14.34;91.13
63035;BME280;59750;53.356;-1.458;2022-10-15T09:15:09;98756.59;;;14.97;90.64
63035;BME280;59750;53.356;-1.458;2022-10-15T09:17:38;98764.38;;;15.87;85.24
63035;BME280;59750;53.356;-1.458;2022-10-15T09:20:15;98769.34;;;16.12;81.85
63035;BME280;59750;53.356;-1.458;2022-10-15T09:22:44;98763.56;;;16.87;80.15
63035;BME280;59750;53.356;-1.458;2022-10-15T09:25:18;98766.91;;;17.58;78.18
63035;BME280;59750;53.356;-1.458;2022-10-15T09:27:46;98774.28;;;18.04;75.60
63035;BME280;59750;53.356;-1.458;2022-10-15T09:30:33;98765.81;;;18.48;65.07
63035;BME280;59750;53.356;-1.458;2022-10-15T09:36:04;98778.88;;;18.23;68.22
63035;BME280;59750;53.356;-1.458;2022-10-15T09:43:46;98791.41;;;18.42;68.46
63035;BME280;59750;53.356;-1.458;2022-10-15T09:46:13;98798.66;;;18.07;67.00
63035;BME280;59750;53.356;-1.458;2022-10-15T09:48:47;98801.78;;;18.24;69.18
63035;BME280;59750;53.356;-1.458;2022-10-15T09:51:23;98797.63;;;18.63;65.07
63035;BME280;59750;53.356;-1.458;2022-10-15T09:56:22;98818.78;;;18.23;65.12
63035;BME280;59750;53.356;-1.458;2022-10-15T09:58:55;98806.44;;;18.83;63.95
63035;BME280;59750;53.356;-1.458;2022-10-15T10:01:24;98808.50;;;18.74;64.21
63035;BME280;59750;53.356;-1.458;2022-10-15T10:03:53;98819.19;;;19.21;61.15
63035;BME280;59750;53.356;-1.458;2022-10-15T10:06:20;98814.25;;;19.31;62.42
63035;BME280;59750;53.356;-1.458;2022-10-15T10:08:53;98811.38;;;19.45;61.33
63035;BME280;59750;53.356;-1.458;2022-10-15T10:11:22;98802.75;;;19.57;63.03
63035;BME280;59750;53.356;-1.458;2022-10-15T10:13:54;98801.31;;;19.54;59.25
63035;BME280;59750;53.356;-1.458;2022-10-15T10:16:22;98816.28;;;19.55;62.14
63035;BME280;59750;53.356;-1.458;2022-10-15T10:19:14;98803.59;;;19.11;61.19
63035;BME280;59750;53.356;-1.458;2022-10-15T10:21:42;98801.13;;;18.83;57.85
63035;BME280;59750;53.356;-1.458;2022-10-15T10:24:27;98805.63;;;19.02;55.51
63035;BME280;59750;53.356;-1.458;2022-10-15T10:26:57;98800.28;;;18.82;55.46
63035;BME280;59750;53.356;-1.458;2022-10-15T10:29:25;98806.84;;;18.67;61.06
63035;BME280;59750;53.356;-1.458;2022-10-15T10:31:52;98817.31;;;18.88;58.04
63035;BME280;59750;53.356;-1.458;2022-10-15T10:34:27;98810.16;;;18.95;58.67
63035;BME280;59750;53.356;-1.458;2022-10-15T10:36:55;98819.91;;;18.62;56.04
63035;BME280;59750;53.356;-1.458;2022-10-15T10:39:30;98823.66;;;18.67;60.85
63035;BME280;59750;53.356;-1.458;2022-10-15T10:42:22;98828.19;;;18.19;57.41
63035;BME280;59750;53.356;-1.458;2022-10-15T10:44:48;98820.09;;;18.60;59.39
63035;BME280;59750;53.356;-1.458;2022-10-15T10:47:19;98833.50;;;18.67;61.12
63035;BME280;59750;53.356;-1.458;2022-10-15T10:54:57;98818.56;;;18.99;57.44
63035;BME280;59750;53.356;-1.458;2022-10-15T10:57:34;98828.00;;;19.21;57.74
63035;BME280;59750;53.356;-1.458;2022-10-15T11:00:06;98842.53;;;18.92;60.13
63035;BME280;59750;53.356;-1.458;2022-10-15T11:02:33;98824.38;;;18.41;54.29
63035;BME280;59750;53.356;-1.458;2022-10-15T11:05:04;98823.91;;;18.31;57.97
63035;BME280;59750;53.356;-1.458;2022-10-15T11:10:07;98833.47;;;17.43;55.20
63035;BME280;59750;53.356;-1.458;2022-10-15T11:18:28;98845.25;;;17.06;60.70
63035;BME280;59750;53.356;-1.458;2022-10-15T11:24:07;98844.50;;;16.69;61.35
63035;BME280;59750;53.356;-1.458;2022-10-15T11:29:46;98861.66;;;16.52;61.59
63035;BME280;59750;53.356;-1.458;2022-10-15T11:35:08;98858.38;;;16.50;64.15
63035;BME280;59750;53.356;-1.458;2022-10-15T11:40:44;98857.44;;;16.73;65.88
63035;BME280;59750;53.356;-1.458;2022-10-15T11:48:41;98837.31;;;16.13;66.93
63035;BME280;59750;53.356;-1.458;2022-10-15T11:51:23;98826.88;;;16.26;65.45
63035;BME280;59750;53.356;-1.458;2022-10-15T11:56:38;98836.97;;;15.86;68.81
63035;BME280;59750;53.356;-1.458;2022-10-15T12:02:00;98843.34;;;15.48;66.56
63035;BME280;59750;53.356;-1.458;2022-10-15T12:04:37;98850.94;;;15.13;69.15
63035;BME280;59750;53.356;-1.458;2022-10-15T12:07:15;98841.97;;;14.76;66.74
63035;BME280;59750;53.356;-1.458;2022-10-15T12:09:47;98863.50;;;14.73;72.06
63035;BME280;59750;53.356;-1.458;2022-10-15T12:12:40;98877.06;;;14.39;68.53
63035;BME280;59750;53.356;-1.458;2022-10-15T12:18:22;98868.25;;;14.16;71.43
63035;BME280;59750;53.356;-1.458;2022-10-15T12:20:50;98859.88;;;14.04;71.32
63035;BME280;59750;53.356;-1.458;2022-10-15T12:23:25;98865.88;;;13.98;70.85
63035;BME280;59750;53.356;-1.458;2022-10-15T12:25:52;98888.31;;;13.94;71.60
63035;BME280;59750;53.356;-1.458;2022-10-15T12:28:24;98873.28;;;13.95;72.47
63035;BME280;59750;53.356;-1.458;2022-10-15T12:30:55;98867.38;;;13.84;72.45
63035;BME280;59750;53.356;-1.458;2022-10-15T12:35:56;98880.13;;;13.81;74.67
63035;BME280;59750;53.356;-1.458;2022-10-15T12:38:28;98862.00;;;13.70;73.01
63035;BME280;59750;53.356;-1.458;2022-10-15T12:41:19;98873.88;;;13.66;76.47
63035;BME280;59750;53.356;-1.458;2022-10-15T12:44:02;98858.69;;;13.59;74.56
63035;BME280;59750;53.356;-1.458;2022-10-15T12:46:38;98853.09;;;13.54;75.55
63035;BME280;59750;53.356;-1.458;2022-10-15T12:51:53;98831.47;;;13.51;77.08
63035;BME280;59750;53.356;-1.458;2022-10-15T13:00:27;98823.59;;;13.43;78.94
63035;BME280;59750;53.356;-1.458;2022-10-15T13:02:55;98818.31;;;13.43;78.59
63035;BME280;59750;53.356;-1.458;2022-10-15T13:05:30;98822.91;;;13.41;76.56
63035;BME280;59750;53.356;-1.458;2022-10-15T13:07:59;98836.97;;;13.33;76.09
63035;BME280;59750;53.356;-1.458;2022-10-15T13:10:27;98825.56;;;13.33;72.55
63035;BME280;59750;53.356;-1.458;2022-10-15T13:12:59;98810.72;;;13.32;70.53
63035;BME280;59750;53.356;-1.458;2022-10-15T13:15:28;98823.75;;;13.33;74.40
63035;BME280;59750;53.356;-1.458;2022-10-15T13:17:58;98821.13;;;13.33;73.23
63035;BME280;59750;53.356;-1.458;2022-10-15T13:20:30;98816.34;;;13.28;70.75
63035;BME280;59750;53.356;-1.458;2022-10-15T13:23:19;98815.84;;;13.25;73.27
63035;BME280;59750;53.356;-1.458;2022-10-15T13:25:47;98827.41;;;13.24;71.73
63035;BME280;59750;53.356;-1.458;2022-10-15T13:28:33;98809.25;;;13.21;71.25
63035;BME280;59750;53.356;-1.458;2022-10-15T13:31:05;98819.00;;;13.20;69.58
63035;BME280;59750;53.356;-1.458;2022-10-15T13:33:38;98818.34;;;13.18;68.38
63035;BME280;59750;53.356;-1.458;2022-10-15T13:36:06;98806.28;;;13.16;67.35
63035;BME280;59750;53.356;-1.458;2022-10-15T13:38:32;98816.97;;;13.14;72.42
63035;BME280;59750;53.356;-1.458;2022-10-15T13:41:00;98829.34;;;13.14;71.94
63035;BME280;59750;53.356;-1.458;2022-10-15T13:43:27;98821.59;;;13.12;71.31
63035;BME280;59750;53.356;-1.458;2022-10-15T13:45:56;98844.91;;;13.25;75.46
63035;BME280;59750;53.356;-1.458;2022-10-15T13:48:25;98850.84;;;13.19;73.22
63035;BME280;59750;53.356;-1.458;2022-10-15T13:50:55;98851.13;;;13.08;71.78
63035;BME280;59750;53.356;-1.458;2022-10-15T13:53:40;98839.94;;;12.89;74.15
63035;BME280;59750;53.356;-1.458;2022-10-15T13:56:26;98843.56;;;12.72;76.35
63035;BME280;59750;53.356;-1.458;2022-10-15T13:58:53;98846.19;;;12.72;76.90
63035;BME280;59750;53.356;-1.458;2022-10-15T14:01:24;98837.63;;;12.70;77.90
63035;BME280;59750;53.356;-1.458;2022-10-15T14:03:54;98827.88;;;12.71;78.41
63035;BME280;59750;53.356;-1.458;2022-10-15T14:06:23;98831.03;;;12.66;78.19
63035;BME280;59750;53.356;-1.458;2022-10-15T14:08:55;98826.72;;;12.65;78.15
63035;BME280;59750;53.356;-1.458;2022-10-15T14:11:22;98825.72;;;12.50;72.93
63035;BME280;59750;53.356;-1.458;2022-10-15T14:13:51;98834.44;;;12.42;75.53
63035;BME280;59750;53.356;-1.458;2022-10-15T14:16:23;98818.13;;;12.38;76.67
63035;BME280;59750;53.356;-1.458;2022-10-15T14:18:56;98818.13;;;12.38;79.55
63035;BME280;59750;53.356;-1.458;2022-10-15T14:21:24;98816.81;;;12.34;79.32
63035;BME280;59750;53.356;-1.458;2022-10-15T14:24:06;98820.44;;;12.33;79.39
63035;BME280;59750;53.356;-1.458;2022-10-15T14:26:36;98803.47;;;12.36;77.93
63035;BME280;59750;53.356;-1.458;2022-10-15T14:29:04;98808.19;;;12.32;80.41
63035;BME280;59750;53.356;-1.458;2022-10-15T14:31:38;98806.25;;;12.34;79.65
63035;BME280;59750;53.356;-1.458;2022-10-15T14:34:25;98807.91;;;12.35;78.91
63035;BME280;59750;53.356;-1.458;2022-10-15T14:36:53;98796.03;;;12.40;76.56